Time;durP1;ratioP1;P1;durP2;ratioP2;P2;SDS_P1;SDS_P2;PMS_P1;PMS_P2;Temp;Humidity;BMP_temperature;BMP_pressure;BME280_temperature;BME280_humidity;BME280_pressure;Samples;Min_cycle;Max_cycle;Signal;HPM_P1;HPM_P2
2024/01/01 00:01:55;;;;;;;;;;;;;;;-144.99;nan;52619.31;5088913;28;19959;-79
2024/01/01 00:04:21;;;;;;;;;;;;;;;-144.99;nan;52639.69;5085045;28;20349;-77
2024/01/01 00:06:49;;;;;;;;;;;;;;;-144.99;nan;52615.25;5090555;28;20357;-76
2024/01/01 00:09:15;;;;;;;;;;;;;;;-144.99;nan;52611.16;5088553;28;20316;-77
2024/01/01 00:11:42;;;;;;;;;;;;;;;-144.99;nan;52560.19;5093650;28;20463;-75
2024/01/01 00:14:08;;;;;;;;;;;;;;;-144.99;nan;52607.09;5087139;28;19928;-77
2024/01/01 00:16:34;;;;;;;;;;;;;;;-144.99;nan;52578.53;5090206;28;19981;-77
2024/01/01 00:19:01;;;;;;;;;;;;;;;-144.99;nan;52590.78;5085214;28;19928;-76
2024/01/01 00:21:27;;;;;;;;;;;;;;;-144.99;nan;52598.94;5081248;28;19924;-76
2024/01/01 00:23:55;;;;;;;;;;;;;;;-144.99;nan;52603.00;5082788;28;19928;-76
2024/01/01 00:26:22;;;;;;;;;;;;;;;-144.99;nan;52594.84;5087628;28;20307;-77
2024/01/01 00:28:48;;;;;;;;;;;;;;;-144.99;nan;52590.78;5083314;28;20003;-77
2024/01/01 00:31:15;;;;;;;;;;;;;;;-144.99;nan;52615.25;5089507;28;20018;-77
2024/01/01 00:33:41;;;;;;;;;;;;;;;-144.99;nan;52611.16;5089302;28;19998;-77
2024/01/01 00:36:08;;;;;;;;;;;;;;;-144.99;nan;52619.31;5090558;28;20344;-76
2024/01/01 00:38:34;;;;;;;;;;;;;;;-144.99;nan;52619.31;5091168;28;20012;-76
2024/01/01 00:41:02;;;;;;;;;;;;;;;-144.99;nan;52586.69;5091876;28;19977;-77
2024/01/01 00:43:28;;;;;;;;;;;;;;;-144.99;nan;52623.38;5089756;28;20024;-76
2024/01/01 00:45:55;;;;;;;;;;;;;;;-144.99;nan;52619.31;5093721;28;19979;-76
2024/01/01 00:48:21;;;;;;;;;;;;;;;-144.99;nan;52596.88;5090924;28;20007;-77
2024/01/01 00:50:48;;;;;;;;;;;;;;;-144.99;nan;52635.63;5091060;28;20467;-77
2024/01/01 00:53:14;;;;;;;;;;;;;;;-144.99;nan;52619.31;5081411;28;20022;-77
2024/01/01 00:55:41;;;;;;;;;;;;;;;-144.99;nan;52637.66;5085651;28;19925;-76
2024/01/01 00:58:09;;;;;;;;;;;;;;;-144.99;nan;52619.31;5095399;28;20002;-75
2024/01/01 01:00:35;;;;;;;;;;;;;;;-144.99;nan;52598.94;5088987;28;20016;-76
2024/01/01 01:03:02;;;;;;;;;;;;;;;-144.99;nan;52619.31;5083391;28;19967;-76
2024/01/01 01:05:28;;;;;;;;;;;;;;;-144.99;nan;52615.25;5089344;28;19924;-77
2024/01/01 01:07:55;;;;;;;;;;;;;;;-144.99;nan;52619.31;5082118;28;20387;-76
2024/01/01 01:10:21;;;;;;;;;;;;;;;-144.99;nan;52643.78;5085708;28;20457;-76
2024/01/01 01:12:47;;;;;;;;;;;;;;;-144.99;nan;52598.94;5091454;28;19971;-76
2024/01/01 01:15:15;;;;;;;;;;;;;;;-144.99;nan;52611.16;5088602;28;20298;-77
2024/01/01 01:17:42;;;;;;;;;;;;;;;-144.99;nan;52607.09;5078240;28;19931;-76
2024/01/01 01:20:08;;;;;;;;;;;;;;;-144.99;nan;52611.16;5087094;28;19982;-74
2024/01/01 01:22:35;;;;;;;;;;;;;;;-144.99;nan;52617.28;5083450;28;19940;-76
2024/01/01 01:25:01;;;;;;;;;;;;;;;-144.99;nan;52617.28;5089523;28;19979;-77
2024/01/01 01:27:28;;;;;;;;;;;;;;;-144.99;nan;52639.69;5090240;28;19928;-77
2024/01/01 01:29:54;;;;;;;;;;;;;;;-144.99;nan;52611.16;5089962;28;20054;-77
2024/01/01 01:32:22;;;;;;;;;;;;;;;-144.99;nan;52619.31;5088020;28;19981;-77
2024/01/01 01:34:48;;;;;;;;;;;;;;;-144.99;nan;52607.09;5097886;28;19959;-78
2024/01/01 01:37:15;;;;;;;;;;;;;;;-144.99;nan;52594.84;5085192;28;20379;-76
2024/01/01 01:39:41;;;;;;;;;;;;;;;-144.99;nan;52623.38;5088411;28;20489;-77
2024/01/01 01:42:08;;;;;;;;;;;;;;;-144.99;nan;52613.19;5092229;28;20015;-76
2024/01/01 01:44:34;;;;;;;;;;;;;;;-144.99;nan;52594.84;5093210;28;19993;-77
2024/01/01 01:47:01;;;;;;;;;;;;;;;-144.99;nan;52607.09;5087011;28;19973;-78
2024/01/01 01:49:29;;;;;;;;;;;;;;;-144.99;nan;52600.97;5089508;28;19978;-79
2024/01/01 01:51:56;;;;;;;;;;;;;;;-144.99;nan;52574.47;5092784;28;19928;-76
2024/01/01 01:54:23;;;;;;;;;;;;;;;-144.99;nan;52627.47;5112566;28;19924;-76
2024/01/01 01:56:50;;;;;;;;;;;;;;;-144.99;nan;52623.38;5108902;28;19928;-75
2024/01/01 01:59:17;;;;;;;;;;;;;;;-144.99;nan;52615.25;5106561;28;19967;-78
2024/01/01 02:01:43;;;;;;;;;;;;;;;-144.99;nan;52594.84;5099861;28;19924;-76
2024/01/01 02:04:09;;;;;;;;;;;;;;;-144.99;nan;52603.00;5102442;28;19952;-77
2024/01/01 02:06:40;;;;;;;;;;;;;;;-144.99;nan;52639.69;5103568;28;19928;-76
2024/01/01 02:09:07;;;;;;;;;;;;;;;-144.99;nan;52631.53;5098698;28;19935;-76
2024/01/01 02:11:33;;;;;;;;;;;;;;;-144.99;nan;52607.09;5101628;28;19924;-75
2024/01/01 02:14:09;;;;;;;;;;;;;;;-144.99;nan;52590.78;5101437;28;19958;-76
2024/01/01 02:16:36;;;;;;;;;;;;;;;-144.99;nan;52635.63;5091867;28;19977;-77
2024/01/01 02:19:04;;;;;;;;;;;;;;;-144.99;nan;52611.16;5104575;28;19935;-75
2024/01/01 02:21:31;;;;;;;;;;;;;;;-144.99;nan;52619.31;5091924;28;19970;-76
2024/01/01 02:23:59;;;;;;;;;;;;;;;-144.99;nan;52621.34;5100086;28;19928;-76
2024/01/01 02:26:25;;;;;;;;;;;;;;;-144.99;nan;52594.84;5096051;28;19924;-77
2024/01/01 02:28:52;;;;;;;;;;;;;;;-144.99;nan;52545.94;4740686;28;10000560;-78
2024/01/01 02:31:18;;;;;;;;;;;;;;;-144.99;nan;52641.72;5108977;28;20466;-77
2024/01/01 02:33:45;;;;;;;;;;;;;;;-144.99;nan;52596.88;5107202;28;19924;-77
2024/01/01 02:36:11;;;;;;;;;;;;;;;-144.99;nan;52631.53;5112346;28;19928;-77
2024/01/01 02:38:38;;;;;;;;;;;;;;;-144.99;nan;52627.47;5110140;28;19924;-77
2024/01/01 02:41:05;;;;;;;;;;;;;;;-144.99;nan;52586.69;5106779;28;19932;-76
2024/01/01 02:43:32;;;;;;;;;;;;;;;-144.99;nan;52570.38;5099244;28;20342;-77
2024/01/01 02:45:58;;;;;;;;;;;;;;;-144.99;nan;52605.03;5107273;28;19945;-77
2024/01/01 02:48:25;;;;;;;;;;;;;;;-144.99;nan;52619.31;5105810;28;19928;-76
2024/01/01 02:50:51;;;;;;;;;;;;;;;-144.99;nan;52629.50;5103053;28;19932;-76
2024/01/01 02:53:18;;;;;;;;;;;;;;;-144.99;nan;52578.53;5099846;28;19928;-76
2024/01/01 02:55:44;;;;;;;;;;;;;;;-144.99;nan;52603.00;5090905;28;20504;-75
2024/01/01 02:58:12;;;;;;;;;;;;;;;-144.99;nan;52615.25;5089918;28;20350;-76
2024/01/01 03:00:39;;;;;;;;;;;;;;;-144.99;nan;52594.84;5092092;28;20295;-76
2024/01/01 03:03:05;;;;;;;;;;;;;;;-144.99;nan;52623.38;5070597;28;19961;-75
2024/01/01 03:05:32;;;;;;;;;;;;;;;-144.99;nan;52615.25;5092433;28;19936;-75
2024/01/01 03:07:58;;;;;;;;;;;;;;;-144.99;nan;52635.63;5092371;28;19956;-75
2024/01/01 03:10:24;;;;;;;;;;;;;;;-144.99;nan;52574.47;5087818;28;20473;-75
2024/01/01 03:12:51;;;;;;;;;;;;;;;-144.99;nan;52639.69;5085190;28;19924;-76
2024/01/01 03:15:20;;;;;;;;;;;;;;;-144.99;nan;52603.00;5089073;28;20582;-76
2024/01/01 03:17:46;;;;;;;;;;;;;;;-144.99;nan;52611.16;5092348;28;19935;-75
2024/01/01 03:20:13;;;;;;;;;;;;;;;-144.99;nan;52603.00;5090827;28;19955;-76
2024/01/01 03:22:39;;;;;;;;;;;;;;;-144.99;nan;52656.00;5091229;28;19925;-76
2024/01/01 03:25:07;;;;;;;;;;;;;;;-144.99;nan;52619.31;5089153;28;19932;-76
2024/01/01 03:27:33;;;;;;;;;;;;;;;-144.99;nan;52582.63;5087714;28;19924;-76
2024/01/01 03:30:00;;;;;;;;;;;;;;;-144.99;nan;52596.88;5091090;28;20380;-76
2024/01/01 03:32:28;;;;;;;;;;;;;;;-144.99;nan;52635.63;5093374;28;20011;-76
2024/01/01 03:34:54;;;;;;;;;;;;;;;-144.99;nan;52627.47;5091910;28;19932;-75
2024/01/01 03:37:20;;;;;;;;;;;;;;;-144.99;nan;52627.47;5089181;28;20375;-76
2024/01/01 03:39:47;;;;;;;;;;;;;;;-144.99;nan;52623.38;5091126;28;20262;-75
2024/01/01 03:42:14;;;;;;;;;;;;;;;-144.99;nan;52607.09;5090984;28;19985;-76
2024/01/01 03:44:40;;;;;;;;;;;;;;;-144.99;nan;52594.84;5090612;28;19928;-76
2024/01/01 03:47:06;;;;;;;;;;;;;;;-144.99;nan;52586.69;5087888;28;20387;-76
2024/01/01 03:49:34;;;;;;;;;;;;;;;-144.99;nan;52590.78;5090789;28;19924;-76
2024/01/01 03:52:01;;;;;;;;;;;;;;;-144.99;nan;52600.97;5083837;28;20840;-76
2024/01/01 03:54:27;;;;;;;;;;;;;;;-144.99;nan;52639.69;5091247;28;19962;-76
2024/01/01 03:56:54;;;;;;;;;;;;;;;-144.99;nan;52594.84;5089835;28;20532;-78
2024/01/01 03:59:21;;;;;;;;;;;;;;;-144.99;nan;52596.88;5087191;28;19928;-76
2024/01/01 04:01:47;;;;;;;;;;;;;;;-144.99;nan;52603.00;5088178;28;20027;-75
2024/01/01 04:04:14;;;;;;;;;;;;;;;-144.99;nan;52594.84;5092165;28;19932;-77
2024/01/01 04:06:42;;;;;;;;;;;;;;;-144.99;nan;52578.53;5088330;28;19977;-76
2024/01/01 04:09:08;;;;;;;;;;;;;;;-144.99;nan;52603.00;5088859;28;19970;-76
2024/01/01 04:11:34;;;;;;;;;;;;;;;-144.99;nan;52596.88;5090908;28;20341;-76
2024/01/01 04:14:02;;;;;;;;;;;;;;;-144.99;nan;52611.16;5092113;28;20388;-76
2024/01/01 04:16:29;;;;;;;;;;;;;;;-144.99;nan;52578.53;5083306;28;19924;-75
2024/01/01 04:18:55;;;;;;;;;;;;;;;-144.99;nan;52586.69;5091546;28;19975;-76
2024/01/01 04:21:22;;;;;;;;;;;;;;;-144.99;nan;52578.53;5087901;28;19963;-77
2024/01/01 04:23:49;;;;;;;;;;;;;;;-144.99;nan;52594.84;5098504;28;19971;-78
2024/01/01 04:26:16;;;;;;;;;;;;;;;-144.99;nan;52631.53;5091550;28;20013;-77
2024/01/01 04:28:42;;;;;;;;;;;;;;;-144.99;nan;52611.16;5086764;28;20338;-77
2024/01/01 04:31:09;;;;;;;;;;;;;;;-144.99;nan;52574.47;5084821;28;19939;-76
2024/01/01 04:33:35;;;;;;;;;;;;;;;-144.99;nan;52586.69;5095708;28;19999;-76
2024/01/01 04:36:03;;;;;;;;;;;;;;;-144.99;nan;52578.53;5081216;28;19977;-77
2024/01/01 04:38:30;;;;;;;;;;;;;;;-144.99;nan;52615.25;5090745;28;19924;-76
2024/01/01 04:40:58;;;;;;;;;;;;;;;-144.99;nan;52603.00;5090553;28;19995;-77
2024/01/01 04:43:25;;;;;;;;;;;;;;;-144.99;nan;52590.78;5099465;22;20006;-63
2024/01/01 04:45:52;;;;;;;;;;;;;;;-144.99;nan;52584.66;5086960;28;20449;-67
2024/01/01 04:48:18;;;;;;;;;;;;;;;-144.99;nan;52611.16;5080727;28;20026;-67
2024/01/01 04:50:44;;;;;;;;;;;;;;;-144.99;nan;52611.16;5087146;28;19928;-67
2024/01/01 04:53:11;;;;;;;;;;;;;;;-144.99;nan;52647.84;5078027;28;19967;-67
2024/01/01 04:55:37;;;;;;;;;;;;;;;-144.99;nan;52588.75;5082124;28;19978;-68
2024/01/01 04:58:05;;;;;;;;;;;;;;;-144.99;nan;52627.47;5087992;28;19932;-67
2024/01/01 05:00:32;;;;;;;;;;;;;;;-144.99;nan;52627.47;5077105;28;19932;-67
2024/01/01 05:02:58;;;;;;;;;;;;;;;-144.99;nan;52592.81;5084682;28;20022;-69
2024/01/01 05:05:25;;;;;;;;;;;;;;;-144.99;nan;52609.13;5084444;28;20370;-68
2024/01/01 05:07:53;;;;;;;;;;;;;;;-144.99;nan;52603.00;5087837;28;19967;-68
2024/01/01 05:10:19;;;;;;;;;;;;;;;-144.99;nan;52572.44;5078856;28;20290;-67
2024/01/01 05:12:46;;;;;;;;;;;;;;;-144.99;nan;52627.47;5083660;28;19924;-69
2024/01/01 05:15:14;;;;;;;;;;;;;;;-144.99;nan;52598.94;5077066;28;19935;-69
2024/01/01 05:17:40;;;;;;;;;;;;;;;-144.99;nan;52586.69;5080519;28;19928;-69
2024/01/01 05:20:07;;;;;;;;;;;;;;;-144.99;nan;52570.38;5077652;28;20025;-69
2024/01/01 05:22:34;;;;;;;;;;;;;;;-144.99;nan;52623.38;5083107;28;19928;-66
2024/01/01 05:25:00;;;;;;;;;;;;;;;-144.99;nan;52623.38;5078892;28;19979;-65
2024/01/01 05:27:27;;;;;;;;;;;;;;;-144.99;nan;52615.25;5083225;28;20381;-66
2024/01/01 05:29:54;;;;;;;;;;;;;;;-144.99;nan;52605.03;5071973;28;20007;-66
2024/01/01 05:32:22;;;;;;;;;;;;;;;-144.99;nan;52578.53;5083809;28;19932;-65
2024/01/01 05:34:49;;;;;;;;;;;;;;;-144.99;nan;52578.53;5080099;28;20000;-65
2024/01/01 05:37:15;;;;;;;;;;;;;;;-144.99;nan;52586.69;5083059;28;19959;-65
2024/01/01 05:39:42;;;;;;;;;;;;;;;-144.99;nan;52631.53;5083622;28;20009;-65
2024/01/01 05:42:08;;;;;;;;;;;;;;;-144.99;nan;52607.09;5083954;28;19953;-65
2024/01/01 05:44:34;;;;;;;;;;;;;;;-144.99;nan;52611.16;5087159;28;20472;-66
2024/01/01 05:47:01;;;;;;;;;;;;;;;-144.99;nan;52611.16;5085144;28;20377;-66
2024/01/01 05:49:29;;;;;;;;;;;;;;;-144.99;nan;52607.09;5077518;28;20917;-66
2024/01/01 05:51:54;;;;;;;;;;;;;;;-144.99;nan;52578.53;5086856;28;20464;-66
2024/01/01 05:54:21;;;;;;;;;;;;;;;-144.99;nan;52623.38;5084182;28;20024;-66
2024/01/01 05:56:47;;;;;;;;;;;;;;;-144.99;nan;52611.16;5082814;28;19962;-66
2024/01/01 05:59:13;;;;;;;;;;;;;;;-144.99;nan;52570.38;5085400;28;20581;-65
2024/01/01 06:01:41;;;;;;;;;;;;;;;-144.99;nan;52615.25;5080461;28;20011;-65
2024/01/01 06:04:07;;;;;;;;;;;;;;;-144.99;nan;52623.38;5083902;28;20027;-65
2024/01/01 06:06:36;;;;;;;;;;;;;;;-144.99;nan;52566.31;5083616;28;20023;-65
2024/01/01 06:09:03;;;;;;;;;;;;;;;-144.99;nan;52578.53;5080879;28;19997;-66
2024/01/01 06:11:30;;;;;;;;;;;;;;;-144.99;nan;52582.63;5082847;28;19970;-66
2024/01/01 06:13:56;;;;;;;;;;;;;;;-144.99;nan;52613.19;5084320;28;20349;-66
2024/01/01 06:16:25;;;;;;;;;;;;;;;-144.99;nan;52605.03;5084627;28;19924;-67
2024/01/01 06:18:51;;;;;;;;;;;;;;;-144.99;nan;52562.25;5072556;28;19924;-70
2024/01/01 06:21:18;;;;;;;;;;;;;;;-144.99;nan;52631.53;5085553;28;20409;-70
2024/01/01 06:23:46;;;;;;;;;;;;;;;-144.99;nan;52603.00;5076477;28;19967;-71
2024/01/01 06:26:13;;;;;;;;;;;;;;;-144.99;nan;52623.38;5077974;28;20016;-72
2024/01/01 06:28:39;;;;;;;;;;;;;;;-144.99;nan;52627.47;5088990;28;19924;-66
2024/01/01 06:31:06;;;;;;;;;;;;;;;-144.99;nan;52627.47;5079838;28;19963;-67
2024/01/01 06:33:32;;;;;;;;;;;;;;;-144.99;nan;52639.69;5089581;28;19967;-66
2024/01/01 06:35:59;;;;;;;;;;;;;;;-144.99;nan;52596.88;5081013;28;19962;-66
2024/01/01 06:38:25;;;;;;;;;;;;;;;-144.99;nan;52623.38;5084341;28;20019;-67
2024/01/01 06:40:53;;;;;;;;;;;;;;;-144.99;nan;52582.63;5088726;28;20019;-67
2024/01/01 06:43:20;;;;;;;;;;;;;;;-144.99;nan;52568.34;5085778;28;19960;-66
2024/01/01 06:45:46;;;;;;;;;;;;;;;-144.99;nan;52627.47;5089498;28;19956;-66
2024/01/01 06:48:12;;;;;;;;;;;;;;;-144.99;nan;52639.69;5087080;28;20003;-63
2024/01/01 06:50:39;;;;;;;;;;;;;;;-144.99;nan;52570.38;5081447;28;19978;-64
2024/01/01 06:53:06;;;;;;;;;;;;;;;-144.99;nan;52603.00;5083216;28;20284;-65
2024/01/01 06:55:33;;;;;;;;;;;;;;;-144.99;nan;52588.75;5089743;28;19989;-63
2024/01/01 06:58:01;;;;;;;;;;;;;;;-144.99;nan;52598.94;5084917;28;19932;-63
2024/01/01 07:00:27;;;;;;;;;;;;;;;-144.99;nan;52598.94;5084657;28;20043;-64
2024/01/01 07:02:54;;;;;;;;;;;;;;;-144.99;nan;52605.03;5089146;28;19924;-64
2024/01/01 07:05:21;;;;;;;;;;;;;;;-144.99;nan;52586.69;5081133;28;20411;-63
2024/01/01 07:07:48;;;;;;;;;;;;;;;-144.99;nan;52570.38;5089396;28;19958;-64
2024/01/01 07:10:15;;;;;;;;;;;;;;;-144.99;nan;52603.00;5079198;28;19985;-64
2024/01/01 07:12:41;;;;;;;;;;;;;;;-144.99;nan;52619.31;5081988;28;20611;-65
2024/01/01 07:15:09;;;;;;;;;;;;;;;-144.99;nan;52611.16;5089989;28;19932;-65
2024/01/01 07:17:36;;;;;;;;;;;;;;;-144.99;nan;52594.84;5089149;28;20385;-64
2024/01/01 07:20:04;;;;;;;;;;;;;;;-144.99;nan;52607.09;5082236;28;20286;-64
2024/01/01 07:22:30;;;;;;;;;;;;;;;-144.99;nan;52627.47;5086971;28;19927;-64
2024/01/01 07:24:57;;;;;;;;;;;;;;;-144.99;nan;52611.16;5079477;28;19981;-64
2024/01/01 07:27:23;;;;;;;;;;;;;;;-144.99;nan;52615.25;5084775;28;19925;-71
2024/01/01 07:29:49;;;;;;;;;;;;;;;-144.99;nan;52603.00;5093572;28;20246;-65
2024/01/01 07:32:17;;;;;;;;;;;;;;;-144.99;nan;52627.47;5082031;28;19924;-65
2024/01/01 07:34:44;;;;;;;;;;;;;;;-144.99;nan;52588.75;5084970;28;19968;-66
2024/01/01 07:37:11;;;;;;;;;;;;;;;-144.99;nan;52578.53;5083953;28;19951;-65
2024/01/01 07:39:37;;;;;;;;;;;;;;;-144.99;nan;52607.09;5081000;28;20266;-65
2024/01/01 07:42:04;;;;;;;;;;;;;;;-144.99;nan;52574.47;5084552;28;20167;-65
2024/01/01 07:44:31;;;;;;;;;;;;;;;-144.99;nan;52550.00;5081504;28;21068;-68
2024/01/01 07:46:58;;;;;;;;;;;;;;;-144.99;nan;52558.16;5085726;28;19974;-66
2024/01/01 07:49:26;;;;;;;;;;;;;;;-144.99;nan;52607.09;5081403;28;19932;-69
2024/01/01 07:51:52;;;;;;;;;;;;;;;-144.99;nan;52611.16;5088012;28;19928;-68
2024/01/01 07:54:18;;;;;;;;;;;;;;;-144.99;nan;52586.69;5081181;28;19928;-69
2024/01/01 07:56:47;;;;;;;;;;;;;;;-144.99;nan;52611.16;5082495;28;20015;-68
2024/01/01 07:59:14;;;;;;;;;;;;;;;-144.99;nan;52603.00;5083570;28;20351;-68
2024/01/01 08:01:40;;;;;;;;;;;;;;;-144.99;nan;52603.00;5081381;28;19958;-68
2024/01/01 08:04:07;;;;;;;;;;;;;;;-144.99;nan;52603.00;5085219;28;19924;-68
2024/01/01 08:06:35;;;;;;;;;;;;;;;-144.99;nan;52590.78;5079981;28;20028;-68
2024/01/01 08:09:02;;;;;;;;;;;;;;;-144.99;nan;52615.25;5087948;28;20398;-67
2024/01/01 08:11:29;;;;;;;;;;;;;;;-144.99;nan;52605.03;5086791;28;19959;-68
2024/01/01 08:13:55;;;;;;;;;;;;;;;-144.99;nan;52621.34;5073143;28;20000;-67
2024/01/01 08:16:22;;;;;;;;;;;;;;;-144.99;nan;52582.63;5085847;28;20429;-67
2024/01/01 08:18:48;;;;;;;;;;;;;;;-144.99;nan;52594.84;5086422;28;19970;-67
2024/01/01 08:21:15;;;;;;;;;;;;;;;-144.99;nan;52582.63;5085441;28;19982;-67
2024/01/01 08:23:42;;;;;;;;;;;;;;;-144.99;nan;52619.31;5083128;28;20066;-70
2024/01/01 08:26:09;;;;;;;;;;;;;;;-144.99;nan;52578.53;5068023;28;20456;-71
2024/01/01 08:28:35;;;;;;;;;;;;;;;-144.99;nan;52611.16;5085927;28;20371;-70
2024/01/01 08:31:02;;;;;;;;;;;;;;;-144.99;nan;52562.25;5087777;28;20014;-69
2024/01/01 08:33:28;;;;;;;;;;;;;;;-144.99;nan;52552.03;5079448;28;20198;-69
2024/01/01 08:35:56;;;;;;;;;;;;;;;-144.99;nan;52631.53;5086433;28;20417;-70
2024/01/01 08:38:22;;;;;;;;;;;;;;;-144.99;nan;52570.38;5084704;28;19927;-69
2024/01/01 08:40:51;;;;;;;;;;;;;;;-144.99;nan;52623.38;5080008;28;20358;-69
2024/01/01 08:43:18;;;;;;;;;;;;;;;-144.99;nan;52611.16;5085126;28;19924;-69
2024/01/01 08:45:44;;;;;;;;;;;;;;;-144.99;nan;52629.50;5083282;28;20018;-70
2024/01/01 08:48:11;;;;;;;;;;;;;;;-144.99;nan;52600.97;5081760;28;19924;-70
2024/01/01 08:50:37;;;;;;;;;;;;;;;-144.99;nan;52598.94;5086390;28;20355;-71
2024/01/01 08:53:04;;;;;;;;;;;;;;;-144.99;nan;52619.31;5084710;28;19932;-71
2024/01/01 08:55:30;;;;;;;;;;;;;;;-144.99;nan;52598.94;5085083;28;19963;-71
2024/01/01 08:57:58;;;;;;;;;;;;;;;-144.99;nan;52598.94;5088307;28;20429;-72
2024/01/01 09:00:25;;;;;;;;;;;;;;;-144.99;nan;52619.31;5085180;28;19924;-71
2024/01/01 09:02:52;;;;;;;;;;;;;;;-144.99;nan;52598.94;5081518;28;20307;-70
2024/01/01 09:05:18;;;;;;;;;;;;;;;-144.99;nan;52578.53;5083968;28;19975;-70
2024/01/01 09:07:45;;;;;;;;;;;;;;;-144.99;nan;52625.44;5085177;28;19924;-70
2024/01/01 09:10:11;;;;;;;;;;;;;;;-144.99;nan;52611.16;5084234;28;19924;-71
2024/01/01 09:12:38;;;;;;;;;;;;;;;-144.99;nan;52598.94;5082020;28;19967;-72
2024/01/01 09:15:06;;;;;;;;;;;;;;;-144.99;nan;52598.94;5083925;28;20580;-71
2024/01/01 09:17:34;;;;;;;;;;;;;;;-144.99;nan;52619.31;5082981;28;20360;-70
2024/01/01 09:20:04;;;;;;;;;;;;;;;-144.99;nan;52643.78;5084031;28;20003;-65
2024/01/01 09:22:30;;;;;;;;;;;;;;;-144.99;nan;52590.78;5084170;28;20089;-65
2024/01/01 09:24:57;;;;;;;;;;;;;;;-144.99;nan;52578.53;5083883;28;20047;-69
2024/01/01 09:27:23;;;;;;;;;;;;;;;-144.99;nan;52647.84;5080109;28;20428;-69
2024/01/01 09:29:49;;;;;;;;;;;;;;;-144.99;nan;52594.84;5089408;28;20421;-70
2024/01/01 09:32:17;;;;;;;;;;;;;;;-144.99;nan;52578.53;5081467;28;19964;-70
2024/01/01 09:34:44;;;;;;;;;;;;;;;-144.99;nan;52578.53;5087677;28;19982;-71
2024/01/01 09:37:10;;;;;;;;;;;;;;;-144.99;nan;52594.84;5081259;28;19968;-71
2024/01/01 09:39:38;;;;;;;;;;;;;;;-144.99;nan;52639.69;5080426;28;19971;-72
2024/01/01 09:42:04;;;;;;;;;;;;;;;-144.99;nan;52639.69;5085957;28;19935;-71
2024/01/01 09:44:32;;;;;;;;;;;;;;;-144.99;nan;52615.25;5080716;28;20016;-74
2024/01/01 09:46:59;;;;;;;;;;;;;;;-144.99;nan;52570.38;5077199;28;19928;-71
2024/01/01 09:49:26;;;;;;;;;;;;;;;-144.99;nan;52619.31;5081509;28;19928;-72
2024/01/01 09:51:56;;;;;;;;;;;;;;;-144.99;nan;52621.34;5085945;28;19935;-71
2024/01/01 09:54:22;;;;;;;;;;;;;;;-144.99;nan;52576.50;5079041;28;20022;-70
2024/01/01 09:56:49;;;;;;;;;;;;;;;-144.99;nan;52603.00;5082661;28;20456;-72
2024/01/01 09:59:32;;;;;;;;;;;;;;;-144.99;nan;52607.09;5076810;28;20430;-71
2024/01/01 10:02:02;;;;;;;;;;;;;;;-144.99;nan;52625.44;5082451;28;19932;-71
2024/01/01 10:04:30;;;;;;;;;;;;;;;-144.99;nan;52611.16;5082013;28;19928;-71
2024/01/01 10:06:58;;;;;;;;;;;;;;;-144.99;nan;52582.63;5087677;28;19997;-72
2024/01/01 10:09:25;;;;;;;;;;;;;;;-144.99;nan;52623.38;5076082;28;19924;-71
2024/01/01 10:11:51;;;;;;;;;;;;;;;-144.99;nan;52594.84;5082624;28;19971;-73
2024/01/01 10:14:18;;;;;;;;;;;;;;;-144.99;nan;52623.38;5088372;28;19952;-73
2024/01/01 10:16:45;;;;;;;;;;;;;;;-144.99;nan;52578.53;5088684;28;19949;-72
2024/01/01 10:19:13;;;;;;;;;;;;;;;-144.99;nan;52574.47;5087420;28;19928;-72
2024/01/01 10:21:41;;;;;;;;;;;;;;;-144.99;nan;52594.84;5085464;28;19932;-72
2024/01/01 10:24:15;;;;;;;;;;;;;;;-144.99;nan;52603.00;5082045;28;20031;-72
2024/01/01 10:26:43;;;;;;;;;;;;;;;-144.99;nan;52594.84;5088975;28;19934;-71
2024/01/01 10:29:11;;;;;;;;;;;;;;;-144.99;nan;52570.38;5081944;28;20010;-73
2024/01/01 10:31:39;;;;;;;;;;;;;;;-144.99;nan;52564.28;5086978;28;19950;-72
2024/01/01 10:34:06;;;;;;;;;;;;;;;-144.99;nan;52582.63;5087891;28;19961;-72
2024/01/01 10:36:33;;;;;;;;;;;;;;;-144.99;nan;52594.84;5086265;28;19976;-72
2024/01/01 10:39:01;;;;;;;;;;;;;;;-144.99;nan;52550.00;5080914;28;19928;-72
2024/01/01 10:41:27;;;;;;;;;;;;;;;-144.99;nan;52537.78;5080017;28;20020;-72
2024/01/01 10:43:55;;;;;;;;;;;;;;;-144.99;nan;52574.47;5078249;28;19993;-73
2024/01/01 10:46:22;;;;;;;;;;;;;;;-144.99;nan;52580.59;5082040;28;19928;-73
2024/01/01 10:48:49;;;;;;;;;;;;;;;-144.99;nan;52607.09;5090016;28;19969;-73
2024/01/01 10:51:25;;;;;;;;;;;;;;;-144.99;nan;52598.94;5080350;28;19983;-73
2024/01/01 10:54:04;;;;;;;;;;;;;;;-144.99;nan;52586.69;5081479;28;20399;-73
2024/01/01 10:56:37;;;;;;;;;;;;;;;-144.99;nan;52586.69;5078076;28;20023;-73
2024/01/01 10:59:09;;;;;;;;;;;;;;;-144.99;nan;52603.00;5081929;28;19955;-71
2024/01/01 11:01:37;;;;;;;;;;;;;;;-144.99;nan;52582.63;5086200;28;19982;-72
2024/01/01 11:04:04;;;;;;;;;;;;;;;-144.99;nan;52590.78;5088069;28;20015;-71
2024/01/01 11:06:32;;;;;;;;;;;;;;;-144.99;nan;52572.44;5090252;28;19992;-71
2024/01/01 11:09:06;;;;;;;;;;;;;;;-144.99;nan;52570.38;5086720;28;19928;-72
2024/01/01 11:11:34;;;;;;;;;;;;;;;-144.99;nan;52572.44;5084947;28;19954;-73
2024/01/01 11:14:01;;;;;;;;;;;;;;;-144.99;nan;52586.69;5083341;28;19964;-74
2024/01/01 11:16:47;;;;;;;;;;;;;;;-144.99;nan;52570.38;5089164;28;19928;-74
2024/01/01 11:19:34;;;;;;;;;;;;;;;-144.99;nan;52598.94;5087068;28;19990;-74
2024/01/01 11:22:30;;;;;;;;;;;;;;;-144.99;nan;52582.63;5090141;28;19924;-75
2024/01/01 11:24:59;;;;;;;;;;;;;;;-144.99;nan;52594.84;5089633;28;19936;-70
2024/01/01 11:27:26;;;;;;;;;;;;;;;-144.99;nan;52598.94;5084535;28;19928;-70
2024/01/01 11:29:52;;;;;;;;;;;;;;;-144.99;nan;52558.16;5079627;28;19928;-70
2024/01/01 11:32:19;;;;;;;;;;;;;;;-144.99;nan;52554.09;5083918;28;20130;-71
2024/01/01 11:35:00;;;;;;;;;;;;;;;-144.99;nan;52611.16;5083558;28;19924;-71
2024/01/01 11:37:26;;;;;;;;;;;;;;;-144.99;nan;52627.47;5080933;28;19981;-70
2024/01/01 11:39:59;;;;;;;;;;;;;;;-144.99;nan;52562.25;5082769;28;19963;-70
2024/01/01 11:42:27;;;;;;;;;;;;;;;-144.99;nan;52554.09;5086110;28;20005;-71
2024/01/01 11:45:05;;;;;;;;;;;;;;;-144.99;nan;52558.16;5088977;28;20373;-70
2024/01/01 11:47:31;;;;;;;;;;;;;;;-144.99;nan;52619.31;5089651;28;19975;-69
2024/01/01 11:49:58;;;;;;;;;;;;;;;-144.99;nan;52578.53;5050514;28;20253;-69
2024/01/01 11:52:25;;;;;;;;;;;;;;;-144.99;nan;52578.53;5085504;28;19939;-71
2024/01/01 11:54:51;;;;;;;;;;;;;;;-144.99;nan;52554.09;5088260;28;19928;-71
2024/01/01 11:57:17;;;;;;;;;;;;;;;-144.99;nan;52574.47;5083978;28;19967;-69
2024/01/01 11:59:46;;;;;;;;;;;;;;;-144.99;nan;52603.00;5088676;28;19974;-69
2024/01/01 12:02:13;;;;;;;;;;;;;;;-144.99;nan;52574.47;5087592;28;20023;-68
2024/01/01 12:04:40;;;;;;;;;;;;;;;-144.99;nan;52558.16;5087374;28;19928;-69
2024/01/01 12:07:06;;;;;;;;;;;;;;;-144.99;nan;52558.16;5088873;28;19924;-69
2024/01/01 12:09:33;;;;;;;;;;;;;;;-144.99;nan;52582.63;5086556;28;20378;-69
2024/01/01 12:12:03;;;;;;;;;;;;;;;-144.99;nan;52566.31;5080694;28;19924;-69
2024/01/01 12:14:30;;;;;;;;;;;;;;;-144.99;nan;52578.53;5085720;28;19928;-70
2024/01/01 12:16:58;;;;;;;;;;;;;;;-144.99;nan;52562.25;5086623;28;21638;-69
2024/01/01 12:19:24;;;;;;;;;;;;;;;-144.99;nan;52554.09;5088658;28;20370;-69
2024/01/01 12:21:52;;;;;;;;;;;;;;;-144.99;nan;52590.78;5070785;28;20080;-69
2024/01/01 12:24:20;;;;;;;;;;;;;;;-144.99;nan;52590.78;5085347;28;20038;-70
2024/01/01 12:26:48;;;;;;;;;;;;;;;-144.99;nan;52582.63;5086290;28;19924;-70
2024/01/01 12:29:15;;;;;;;;;;;;;;;-144.99;nan;52592.81;5088178;28;19924;-70
2024/01/01 12:31:42;;;;;;;;;;;;;;;-144.99;nan;52545.94;5087901;28;19989;-70
2024/01/01 12:34:12;;;;;;;;;;;;;;;-144.99;nan;52613.19;5084060;28;19923;-70
2024/01/01 12:36:39;;;;;;;;;;;;;;;-144.99;nan;52592.81;5085252;28;19931;-70
2024/01/01 12:39:05;;;;;;;;;;;;;;;-144.99;nan;52629.50;5086985;28;19970;-70
2024/01/01 12:41:32;;;;;;;;;;;;;;;-144.99;nan;52541.84;5087866;28;20247;-70
2024/01/01 12:43:59;;;;;;;;;;;;;;;-144.99;nan;52558.16;5085090;28;19932;-70
2024/01/01 12:46:26;;;;;;;;;;;;;;;-144.99;nan;52564.28;5071017;28;20306;-71